createdAt,value
2019-05-22T00:03:20.549Z,92952.20
2019-05-22T00:08:51.164Z,92948.48
2019-05-22T00:14:20.564Z,92943.08
2019-05-22T00:19:50.349Z,92951.30
2019-05-22T00:25:23.797Z,92946.95
2019-05-22T00:30:52.151Z,92945.23
2019-05-22T00:36:21.085Z,92948.33
2019-05-22T00:41:51.197Z,92940.83
2019-05-22T00:47:20.374Z,92949.78
2019-05-22T00:52:54.163Z,92943.09
2019-05-22T00:58:33.883Z,92945.64
2019-05-22T01:04:03.990Z,92948.30
2019-05-22T01:09:40.072Z,92953.95
2019-05-22T01:15:09.673Z,92949.59
2019-05-22T01:20:38.499Z,92947.89
2019-05-22T01:26:21.099Z,92941.13
2019-05-22T01:32:15.633Z,92951.36
2019-05-22T01:37:58.625Z,92951.09
2019-05-22T01:43:40.438Z,92953.58
2019-05-22T01:49:22.528Z,92951.16
2019-05-22T01:55:05.359Z,92957.42
2019-05-22T02:00:35.425Z,92954.02
2019-05-22T02:06:06.082Z,92957.14
2019-05-22T02:11:36.113Z,92956.55
2019-05-22T02:17:05.983Z,92954.54
2019-05-22T02:22:35.944Z,92958.75
2019-05-22T02:28:04.497Z,92966.11
2019-05-22T02:33:33.190Z,92969.31
2019-05-22T02:39:01.959Z,92975.05
2019-05-22T02:44:32.371Z,92972.47
2019-05-22T02:50:01.925Z,92973.58
2019-05-22T02:55:31.639Z,92970.88
2019-05-22T03:01:02.278Z,92971.29
2019-05-22T03:06:31.169Z,92976.25
2019-05-22T03:12:01.841Z,92983.53
2019-05-22T03:17:32.427Z,92983.34
2019-05-22T03:23:01.723Z,92993.23
2019-05-22T03:28:30.797Z,92996.51
2019-05-22T03:34:00.270Z,92999.34
2019-05-22T03:39:29.715Z,92992.68
2019-05-22T03:44:58.991Z,92995.63
2019-05-22T03:50:29.422Z,92998.73
2019-05-22T03:55:58.360Z,92998.63
2019-05-22T04:01:40.227Z,93005.50
2019-05-22T04:07:22.426Z,93017.38
2019-05-22T04:12:50.704Z,93029.31
2019-05-22T04:18:32.849Z,93018.92
2019-05-22T04:24:14.028Z,93023.19
2019-05-22T04:29:56.191Z,93018.04
2019-05-22T04:35:38.116Z,93024.41
2019-05-22T04:41:06.859Z,93034.00
2019-05-22T04:46:36.211Z,93031.03
2019-05-22T04:52:05.840Z,93031.19
2019-05-22T04:57:34.624Z,93026.13
2019-05-22T05:03:03.519Z,93034.50
2019-05-22T05:08:32.512Z,93033.34
2019-05-22T05:14:01.400Z,93032.52
2019-05-22T05:19:29.584Z,93036.45
2019-05-22T05:24:58.172Z,93048.31
2019-05-22T05:30:27.713Z,93048.84
2019-05-22T05:33:01.955Z,93046.72
2019-05-22T05:35:35.658Z,93047.66
2019-05-22T05:38:09.109Z,93048.41
2019-05-22T05:40:45.681Z,93051.28
2019-05-22T05:43:19.245Z,93059.63
2019-05-22T05:45:52.115Z,93063.02
2019-05-22T05:48:25.016Z,93067.24
2019-05-22T05:50:58.955Z,93072.56
2019-05-22T05:53:32.718Z,93069.88
2019-05-22T05:56:05.541Z,93066.52
2019-05-22T05:58:38.874Z,93072.55
2019-05-22T06:01:19.429Z,93070.80
2019-05-22T06:03:53.448Z,93070.91
2019-05-22T06:06:27.705Z,93077.20
2019-05-22T06:09:02.212Z,93070.56
2019-05-22T06:11:36.065Z,93075.05
2019-05-22T06:14:10.549Z,93081.64
2019-05-22T06:16:43.402Z,93086.05
2019-05-22T06:19:16.969Z,93079.67
2019-05-22T06:21:50.947Z,93083.38
2019-05-22T06:24:24.311Z,93077.55
2019-05-22T06:26:57.690Z,93079.17
2019-05-22T06:29:31.724Z,93083.72
2019-05-22T06:32:04.788Z,93086.30
2019-05-22T06:34:38.256Z,93077.48
2019-05-22T06:37:12.681Z,93085.72
2019-05-22T06:39:45.571Z,93081.57
2019-05-22T06:42:19.103Z,93080.16
2019-05-22T06:44:51.876Z,93086.91
2019-05-22T06:47:26.364Z,93079.09
2019-05-22T06:49:59.982Z,93082.34
2019-05-22T06:52:32.703Z,93082.84
2019-05-22T06:55:06.240Z,93076.98
2019-05-22T06:57:39.353Z,93082.48
2019-05-22T07:00:15.181Z,93080.30
2019-05-22T07:02:47.757Z,93087.15
2019-05-22T07:05:20.728Z,93084.43
2019-05-22T07:07:53.743Z,93085.22
2019-05-22T07:10:27.013Z,93086.91
2019-05-22T07:12:59.983Z,93079.30
2019-05-22T07:15:34.397Z,93079.95
2019-05-22T07:18:11.921Z,93076.09
2019-05-22T07:20:43.203Z,93078.03
2019-05-22T07:23:17.612Z,93077.93
2019-05-22T07:25:50.370Z,93076.55
2019-05-22T07:28:23.690Z,93084.52
2019-05-22T07:30:57.287Z,93082.33
2019-05-22T07:33:30.452Z,93089.03
2019-05-22T07:36:16.359Z,93082.53
2019-05-22T07:38:38.469Z,93081.45
2019-05-22T07:41:11.974Z,93086.11
2019-05-22T07:43:44.732Z,93084.67
2019-05-22T07:46:18.550Z,93091.92
2019-05-22T07:48:51.273Z,93088.84
2019-05-22T07:51:25.731Z,93091.70
2019-05-22T07:53:58.403Z,93089.64
2019-05-22T07:56:32.740Z,93096.50
2019-05-22T07:59:05.808Z,93090.61
2019-05-22T08:01:39.195Z,93097.97
2019-05-22T08:04:12.713Z,93095.29
2019-05-22T08:06:45.511Z,93104.96
2019-05-22T08:09:18.805Z,93098.82
2019-05-22T08:11:52.461Z,93099.55
2019-05-22T08:14:25.476Z,93097.73
2019-05-22T08:16:58.506Z,93101.50
2019-05-22T08:19:31.492Z,93108.20
2019-05-22T08:22:07.308Z,93110.41
2019-05-22T08:24:38.735Z,93110.95
2019-05-22T08:27:11.721Z,93111.73
2019-05-22T08:29:44.591Z,93106.69
2019-05-22T08:32:17.367Z,93106.40
2019-05-22T08:34:50.819Z,93111.73
2019-05-22T08:37:23.538Z,93106.23
2019-05-22T08:39:56.652Z,93111.40
2019-05-22T08:42:30.289Z,93113.56
2019-05-22T08:45:04.344Z,93113.32
2019-05-22T08:47:39.371Z,93115.17
2019-05-22T08:50:13.142Z,93112.41
2019-05-22T08:52:47.008Z,93109.13
2019-05-22T08:55:21.752Z,93112.35
2019-05-22T08:57:54.624Z,93118.89
2019-05-22T09:00:29.076Z,93120.39
2019-05-22T09:03:02.660Z,93117.62
2019-05-22T09:05:36.570Z,93122.81
2019-05-22T09:08:09.836Z,93126.92
2019-05-22T09:10:43.029Z,93125.97
2019-05-22T09:13:15.808Z,93126.99
2019-05-22T09:15:48.700Z,93122.92
2019-05-22T09:18:23.251Z,93126.53
2019-05-22T09:20:56.335Z,93128.51
2019-05-22T09:23:29.249Z,93133.99
2019-05-22T09:26:02.747Z,93138.58
2019-05-22T09:28:35.665Z,93138.98
2019-05-22T09:31:08.639Z,93149.20
2019-05-22T09:33:42.673Z,93148.41
2019-05-22T09:36:16.425Z,93144.31
2019-05-22T09:38:52.395Z,93151.70
2019-05-22T09:41:24.214Z,93146.47
2019-05-22T09:43:57.347Z,93155.90
2019-05-22T09:46:31.430Z,93150.45
2019-05-22T09:49:05.572Z,93156.13
2019-05-22T09:51:38.832Z,93160.85
2019-05-22T09:54:12.441Z,93162.89
2019-05-22T09:56:45.419Z,93164.68
2019-05-22T09:59:19.049Z,93170.68
2019-05-22T10:01:51.824Z,93177.52
2019-05-22T10:04:25.518Z,93173.77
2019-05-22T10:06:58.389Z,93189.66
2019-05-22T10:09:31.586Z,93179.87
2019-05-22T10:12:05.084Z,93190.20
2019-05-22T10:14:38.824Z,93190.27
2019-05-22T10:17:12.612Z,93189.06
2019-05-22T10:19:45.329Z,93190.77
2019-05-22T10:22:18.162Z,93191.25
2019-05-22T10:24:52.060Z,93184.23
2019-05-22T10:27:25.379Z,93191.91
2019-05-22T10:29:58.147Z,93193.83
2019-05-22T10:32:32.611Z,93189.22
2019-05-22T10:35:05.752Z,93185.66
2019-05-22T10:37:38.484Z,93189.16
2019-05-22T10:40:11.542Z,93192.80
2019-05-22T10:42:45.511Z,93190.50
2019-05-22T10:45:19.004Z,93191.41
2019-05-22T10:47:51.743Z,93186.09
2019-05-22T10:50:26.135Z,93191.92
2019-05-22T10:52:59.314Z,93195.66
2019-05-22T10:55:32.135Z,93192.84
2019-05-22T10:58:06.087Z,93191.00
2019-05-22T11:00:39.344Z,93195.66
2019-05-22T11:03:12.921Z,93194.82
2019-05-22T11:05:46.719Z,93198.59
2019-05-22T11:08:20.324Z,93200.73
2019-05-22T11:10:53.446Z,93200.84
2019-05-22T11:13:26.943Z,93206.09
2019-05-22T11:15:59.669Z,93208.86
2019-05-22T11:18:33.019Z,93204.97
2019-05-22T11:21:05.910Z,93203.64
2019-05-22T11:23:51.009Z,93197.27
2019-05-22T11:26:13.598Z,93199.90
2019-05-22T11:28:46.955Z,93200.13
2019-05-22T11:31:19.959Z,93196.98
2019-05-22T11:33:53.352Z,93204.14
2019-05-22T11:36:27.703Z,93219.83
2019-05-22T11:39:01.127Z,93213.98
2019-05-22T11:41:35.094Z,93205.69
2019-05-22T11:44:08.123Z,93206.92
2019-05-22T11:46:41.218Z,93208.82
2019-05-22T11:49:14.004Z,93209.66
2019-05-22T11:51:47.411Z,93216.75
2019-05-22T11:54:21.144Z,93222.97
2019-05-22T11:56:54.526Z,93220.33
2019-05-22T11:59:27.419Z,93229.66
2019-05-22T12:02:00.279Z,93224.08
2019-05-22T12:04:47.120Z,93222.39
2019-05-22T12:07:09.726Z,93217.51
2019-05-22T12:09:42.417Z,93227.14
2019-05-22T12:12:16.919Z,93223.71
2019-05-22T12:14:49.674Z,93226.66
2019-05-22T12:17:37.387Z,93223.38
2019-05-22T12:19:57.392Z,93230.91
2019-05-22T12:22:30.261Z,93230.58
2019-05-22T12:25:03.178Z,93226.16
2019-05-22T12:27:35.971Z,93241.94
2019-05-22T12:30:08.803Z,93234.15
2019-05-22T12:32:42.500Z,93239.87
2019-05-22T12:35:16.096Z,93244.96
2019-05-22T12:37:49.592Z,93250.99
2019-05-22T12:40:23.258Z,93251.30
2019-05-22T12:42:57.284Z,93251.54
2019-05-22T12:45:30.969Z,93242.38
2019-05-22T12:48:04.773Z,93250.84
2019-05-22T12:50:38.692Z,93238.47
2019-05-22T12:53:13.293Z,93240.83
2019-05-22T12:55:47.044Z,93244.35
2019-05-22T12:58:20.084Z,93238.79
2019-05-22T13:00:52.999Z,93242.75
2019-05-22T13:03:26.653Z,93246.30
2019-05-22T13:05:59.756Z,93237.59
2019-05-22T13:08:32.659Z,93246.56
2019-05-22T13:11:05.986Z,93233.26
2019-05-22T13:13:39.174Z,93235.41
2019-05-22T13:16:11.874Z,93242.90
2019-05-22T13:18:44.923Z,93235.30
2019-05-22T13:21:19.318Z,93235.28
2019-05-22T13:23:52.924Z,93231.92
2019-05-22T13:26:26.328Z,93224.81
2019-05-22T13:28:59.468Z,93226.44
2019-05-22T13:31:33.916Z,93229.81
2019-05-22T13:34:07.532Z,93224.58
2019-05-22T13:36:41.154Z,93225.77
2019-05-22T13:39:15.877Z,93230.87
2019-05-22T13:41:48.613Z,93222.81
2019-05-22T13:44:21.575Z,93223.14
2019-05-22T13:46:55.346Z,93226.91
2019-05-22T13:49:29.735Z,93237.53
2019-05-22T13:52:02.511Z,93218.99
2019-05-22T13:54:36.090Z,93227.02
2019-05-22T13:57:09.430Z,93223.05
2019-05-22T13:59:43.536Z,93219.34
2019-05-22T14:02:16.454Z,93223.56
2019-05-22T14:04:49.380Z,93224.31
2019-05-22T14:07:22.210Z,93227.16
2019-05-22T14:09:55.170Z,93233.47
2019-05-22T14:12:28.135Z,93223.24
2019-05-22T14:15:01.130Z,93228.16
2019-05-22T14:17:33.715Z,93231.38
2019-05-22T14:20:06.444Z,93231.63
2019-05-22T14:22:39.905Z,93236.55
2019-05-22T14:25:12.873Z,93237.59
2019-05-22T14:27:46.101Z,93238.74
2019-05-22T14:30:19.005Z,93229.98
2019-05-22T14:32:52.388Z,93238.38
2019-05-22T14:35:26.214Z,93224.48
2019-05-22T14:37:59.001Z,93231.06
2019-05-22T14:40:31.878Z,93244.14
2019-05-22T14:43:04.710Z,93230.38
2019-05-22T14:45:38.371Z,93237.55
2019-05-22T14:48:11.903Z,93240.66
2019-05-22T14:50:44.855Z,93231.95
2019-05-22T14:53:18.374Z,93230.44
2019-05-22T14:55:52.169Z,93229.77
2019-05-22T14:58:25.749Z,93232.25
2019-05-22T15:00:58.764Z,93227.23
2019-05-22T15:03:32.155Z,93220.78
2019-05-22T15:06:05.830Z,93216.25
2019-05-22T15:08:39.001Z,93222.42
2019-05-22T15:11:12.471Z,93225.70
2019-05-22T15:13:45.299Z,93223.70
2019-05-22T15:16:18.245Z,93218.95
2019-05-22T15:18:51.100Z,93225.17
2019-05-22T15:21:23.973Z,93214.20
2019-05-22T15:23:56.860Z,93217.51
2019-05-22T15:26:30.319Z,93214.59
2019-05-22T15:29:02.979Z,93210.63
2019-05-22T15:31:35.944Z,93213.91
2019-05-22T15:34:09.345Z,93217.66
2019-05-22T15:36:42.244Z,93224.50
2019-05-22T15:39:16.759Z,93221.12
2019-05-22T15:41:50.029Z,93211.83
2019-05-22T15:44:23.874Z,93220.42
2019-05-22T15:46:56.858Z,93224.34
2019-05-22T15:49:29.835Z,93215.47
2019-05-22T15:52:03.363Z,93228.48
2019-05-22T15:54:36.712Z,93234.23
2019-05-22T15:57:11.140Z,93226.97
2019-05-22T15:59:45.094Z,93232.57
2019-05-22T16:02:21.714Z,93240.96
2019-05-22T16:04:54.000Z,93240.27
2019-05-22T16:07:27.029Z,93246.41
2019-05-22T16:10:01.410Z,93236.73
2019-05-22T16:12:34.209Z,93239.41
2019-05-22T16:15:07.486Z,93244.35
2019-05-22T16:17:41.706Z,93249.72
2019-05-22T16:20:15.003Z,93245.26
2019-05-22T16:22:47.894Z,93247.23
2019-05-22T16:25:20.859Z,93255.78
2019-05-22T16:27:54.465Z,93266.08
2019-05-22T16:30:29.008Z,93261.08
2019-05-22T16:33:02.024Z,93264.61
2019-05-22T16:35:35.167Z,93274.24
2019-05-22T16:38:07.961Z,93272.08
2019-05-22T16:40:40.783Z,93272.58
2019-05-22T16:43:13.525Z,93272.16
2019-05-22T16:45:47.149Z,93283.20
2019-05-22T16:48:29.017Z,93281.24
2019-05-22T16:50:55.645Z,93291.13
2019-05-22T16:53:29.892Z,93298.14
2019-05-22T16:56:02.680Z,93179.95
2019-05-22T16:58:36.692Z,93308.92
2019-05-22T17:01:10.620Z,93310.12
2019-05-22T17:03:43.638Z,93301.15
2019-05-22T17:06:16.566Z,93316.84
2019-05-22T17:08:50.215Z,93315.87
2019-05-22T17:11:23.098Z,93329.15
2019-05-22T17:13:58.353Z,93324.95
2019-05-22T17:16:33.005Z,93332.73
2019-05-22T17:19:25.213Z,93343.23
2019-05-22T17:21:40.406Z,93341.80
2019-05-22T17:24:14.850Z,93343.53
2019-05-22T17:26:48.283Z,93348.58
2019-05-22T17:29:21.565Z,93343.78
2019-05-22T17:31:54.698Z,93336.55
2019-05-22T17:34:34.958Z,93347.45
2019-05-22T17:37:09.537Z,93353.97
2019-05-22T17:39:44.621Z,93338.95
2019-05-22T17:42:18.264Z,93342.44
2019-05-22T17:44:52.129Z,93357.80
2019-05-22T17:47:25.760Z,93360.47
2019-05-22T17:49:59.540Z,93362.33
2019-05-22T17:52:32.597Z,93345.02
2019-05-22T17:55:06.153Z,93358.64
2019-05-22T17:57:40.089Z,93357.64
2019-05-22T18:00:20.564Z,93352.36
2019-05-22T18:02:54.253Z,93353.75
2019-05-22T18:05:27.651Z,93357.28
2019-05-22T18:08:00.586Z,93353.58
2019-05-22T18:10:39.920Z,93353.09
2019-05-22T18:13:10.394Z,93354.41
2019-05-22T18:15:43.333Z,93363.63
2019-05-22T18:18:17.894Z,93366.12
2019-05-22T18:20:51.721Z,93371.14
2019-05-22T18:23:24.997Z,93366.38
2019-05-22T18:25:57.831Z,93368.14
2019-05-22T18:28:30.945Z,93373.06
2019-05-22T18:31:04.126Z,93364.89
2019-05-22T18:33:36.951Z,93372.30
2019-05-22T18:36:09.900Z,93371.91
2019-05-22T18:38:42.779Z,93376.55
2019-05-22T18:41:15.556Z,93379.22
2019-05-22T18:43:48.949Z,93381.50
2019-05-22T18:46:21.837Z,93380.97
2019-05-22T18:48:55.035Z,93385.75
2019-05-22T18:51:28.586Z,93386.84
2019-05-22T18:54:01.330Z,93395.45
2019-05-22T18:56:34.609Z,93390.44
2019-05-22T18:59:07.264Z,93400.50
2019-05-22T19:01:40.548Z,93396.41
2019-05-22T19:04:13.586Z,93400.36
2019-05-22T19:06:46.703Z,93401.35
2019-05-22T19:09:20.292Z,93405.58
2019-05-22T19:11:53.071Z,93406.30
2019-05-22T19:14:27.106Z,93396.45
2019-05-22T19:16:59.998Z,93405.73
2019-05-22T19:19:33.214Z,93402.33
2019-05-22T19:22:06.074Z,93412.53
2019-05-22T19:24:39.059Z,93412.77
2019-05-22T19:27:12.624Z,93414.31
2019-05-22T19:29:47.211Z,93413.08
2019-05-22T19:32:20.515Z,93422.14
2019-05-22T19:34:53.408Z,93415.89
2019-05-22T19:37:26.209Z,93415.98
2019-05-22T19:39:59.909Z,93418.38
2019-05-22T19:42:32.784Z,93413.44
2019-05-22T19:45:06.205Z,93426.45
2019-05-22T19:47:39.011Z,93427.49
2019-05-22T19:50:22.835Z,93421.27
2019-05-22T19:52:47.064Z,93426.14
2019-05-22T19:55:20.144Z,93424.36
2019-05-22T19:57:52.984Z,93434.95
2019-05-22T20:00:25.911Z,93430.22
2019-05-22T20:02:59.164Z,93437.65
2019-05-22T20:05:33.745Z,93435.86
2019-05-22T20:08:06.555Z,93437.20
2019-05-22T20:10:40.050Z,93432.95
2019-05-22T20:13:13.569Z,93438.77
2019-05-22T20:15:46.312Z,93440.45
2019-05-22T20:18:19.104Z,93442.24
2019-05-22T20:20:51.994Z,93444.94
2019-05-22T20:23:35.577Z,93438.03
2019-05-22T20:26:00.796Z,93447.18
2019-05-22T20:28:33.816Z,93444.38
2019-05-22T20:31:08.238Z,93450.72
2019-05-22T20:33:42.235Z,93441.11
2019-05-22T20:36:16.201Z,93435.38
2019-05-22T20:38:49.231Z,93440.56
2019-05-22T20:41:23.085Z,93438.03
2019-05-22T20:43:56.641Z,93450.52
2019-05-22T20:46:31.106Z,93434.69
2019-05-22T20:49:03.903Z,93448.22
2019-05-22T20:51:37.564Z,93437.70
2019-05-22T20:54:12.019Z,93443.00
2019-05-22T20:56:46.462Z,93439.70
2019-05-22T20:59:19.461Z,93450.27
2019-05-22T21:01:52.261Z,93452.13
2019-05-22T21:04:25.765Z,93440.91
2019-05-22T21:06:59.974Z,93438.03
2019-05-22T21:09:34.141Z,93438.85
2019-05-22T21:12:07.829Z,93434.57
2019-05-22T21:14:41.819Z,93443.42
2019-05-22T21:17:16.108Z,93444.02
2019-05-22T21:19:50.449Z,93443.07
2019-05-22T21:22:23.800Z,93450.67
2019-05-22T21:24:56.908Z,93441.94
2019-05-22T21:27:30.404Z,93438.40
2019-05-22T21:30:04.366Z,93424.47
2019-05-22T21:32:38.047Z,93430.66
2019-05-22T21:35:11.883Z,93437.20
2019-05-22T21:37:44.790Z,93444.40
2019-05-22T21:40:18.704Z,93437.36
2019-05-22T21:42:51.578Z,93437.20
2019-05-22T21:45:24.419Z,93426.30
2019-05-22T21:47:57.123Z,93438.82
2019-05-22T21:50:30.014Z,93435.91
2019-05-22T21:53:03.001Z,93439.11
2019-05-22T21:55:37.164Z,93438.07
2019-05-22T21:58:10.384Z,93445.47
2019-05-22T22:00:43.124Z,93436.22
2019-05-22T22:03:30.157Z,93441.06
2019-05-22T22:06:03.952Z,93432.08
2019-05-22T22:08:38.015Z,93440.14
2019-05-22T22:11:11.643Z,93448.14
2019-05-22T22:13:44.973Z,93444.61
2019-05-22T22:16:19.513Z,93437.06
2019-05-22T22:18:53.814Z,93443.14
2019-05-22T22:21:27.579Z,93438.52
2019-05-22T22:24:00.518Z,93442.98
2019-05-22T22:26:34.070Z,93444.14
2019-05-22T22:29:08.404Z,93439.91
2019-05-22T22:31:42.941Z,93453.87
2019-05-22T22:34:16.629Z,93456.12
2019-05-22T22:36:50.154Z,93444.19
2019-05-22T22:39:23.520Z,93445.08
2019-05-22T22:41:57.997Z,93448.73
2019-05-22T22:44:31.841Z,93440.98
2019-05-22T22:47:06.284Z,93427.55
2019-05-22T22:49:41.013Z,93433.73
2019-05-22T22:52:14.615Z,93435.22
2019-05-22T22:54:48.480Z,93438.09
2019-05-22T22:57:23.171Z,93447.77
2019-05-22T22:59:56.038Z,93450.52
2019-05-22T23:02:29.655Z,93444.39
2019-05-22T23:05:02.439Z,93444.14
2019-05-22T23:07:35.882Z,93437.00
2019-05-22T23:10:09.925Z,93444.00
2019-05-22T23:12:44.089Z,93445.02
2019-05-22T23:15:18.559Z,93451.81
2019-05-22T23:17:52.453Z,93448.58
2019-05-22T23:20:26.655Z,93444.11
2019-05-22T23:23:01.091Z,93451.67
2019-05-22T23:25:34.467Z,93447.80
2019-05-22T23:28:08.933Z,93441.27
2019-05-22T23:30:42.071Z,93449.92
2019-05-22T23:33:14.951Z,93457.23
2019-05-22T23:35:47.988Z,93451.66
2019-05-22T23:38:21.720Z,93460.28
2019-05-22T23:40:54.409Z,93459.49
2019-05-22T23:43:29.716Z,93454.06
2019-05-22T23:46:03.246Z,93450.50
2019-05-22T23:48:36.116Z,93449.59
2019-05-22T23:51:09.321Z,93454.49
2019-05-22T23:53:42.934Z,93453.31
2019-05-22T23:56:16.909Z,93457.91
2019-05-22T23:58:53.206Z,93464.44
